Time;durP1;ratioP1;P1;durP2;ratioP2;P2;SDS_P1;SDS_P2;PMS_P1;PMS_P2;Temp;Humidity;BMP_temperature;BMP_pressure;BME280_temperature;BME280_humidity;BME280_pressure;Samples;Min_cycle;Max_cycle;Signal;HPM_P1;HPM_P2
2021/05/09 00:01:15;;;;;;;4.75;3.20;;;10.20;61.90;;;;;;5091888;28;20050;-43
2021/05/09 00:03:40;;;;;;;3.95;3.15;;;10.20;62.00;;;;;;5091747;28;20467;-40
2021/05/09 00:06:06;;;;;;;4.82;3.28;;;10.20;62.00;;;;;;5092162;28;20471;-40
2021/05/09 00:08:31;;;;;;;7.32;3.70;;;10.20;61.90;;;;;;5092026;28;20112;-40
2021/05/09 00:10:57;;;;;;;6.88;3.83;;;10.20;62.10;;;;;;5090993;28;20047;-41
2021/05/09 00:13:23;;;;;;;6.45;3.30;;;10.20;62.10;;;;;;5091372;28;20237;-40
2021/05/09 00:15:50;;;;;;;5.10;3.15;;;10.20;62.10;;;;;;5091610;28;20476;-41
2021/05/09 00:18:15;;;;;;;4.85;3.35;;;10.20;62.30;;;;;;5091583;28;20093;-42
2021/05/09 00:20:41;;;;;;;4.20;3.30;;;10.20;62.40;;;;;;5091908;28;20047;-42
2021/05/09 00:23:06;;;;;;;4.82;3.35;;;10.20;62.40;;;;;;5073702;28;20056;-41
2021/05/09 00:25:32;;;;;;;8.20;3.13;;;10.20;62.50;;;;;;5070496;28;20032;-41
2021/05/09 00:27:57;;;;;;;5.13;2.80;;;10.20;62.30;;;;;;5071316;28;20491;-41
2021/05/09 00:30:23;;;;;;;4.85;3.13;;;10.20;62.30;;;;;;5071241;28;20035;-40
2021/05/09 00:32:48;;;;;;;7.28;3.17;;;10.30;62.30;;;;;;5071169;28;20294;-41
2021/05/09 00:35:14;;;;;;;6.78;2.42;;;10.20;62.20;;;;;;5071132;28;20083;-41
2021/05/09 00:37:40;;;;;;;9.00;3.80;;;10.30;62.10;;;;;;5071163;28;20074;-40
2021/05/09 00:40:07;;;;;;;4.50;2.92;;;10.30;62.20;;;;;;5070342;28;20380;-41
2021/05/09 00:42:33;;;;;;;3.53;2.58;;;10.30;62.10;;;;;;5071140;28;20475;-42
2021/05/09 00:44:58;;;;;;;3.03;2.25;;;10.30;62.40;;;;;;5071060;28;20035;-40
2021/05/09 00:47:24;;;;;;;4.40;3.22;;;10.30;62.20;;;;;;5070056;28;20475;-40
2021/05/09 00:49:49;;;;;;;6.53;3.20;;;10.40;62.40;;;;;;5071423;28;20036;-40
2021/05/09 00:52:15;;;;;;;3.63;2.70;;;10.40;62.00;;;;;;5057657;28;20040;-40
2021/05/09 00:54:51;;;;;;;4.00;2.55;;;10.40;62.20;;;;;;5051778;28;20472;-42
2021/05/09 00:57:18;;;;;;;6.20;3.28;;;10.40;62.10;;;;;;5052832;28;20070;-40
2021/05/09 00:59:46;;;;;;;5.97;3.30;;;10.50;62.30;;;;;;5052592;28;20414;-40
2021/05/09 01:02:13;;;;;;;4.97;3.10;;;10.50;62.30;;;;;;5052582;28;20093;-40
2021/05/09 01:04:40;;;;;;;5.20;2.80;;;10.50;62.30;;;;;;5052794;28;20029;-41
2021/05/09 01:07:06;;;;;;;3.97;2.83;;;10.50;62.30;;;;;;5052640;28;20115;-40
2021/05/09 01:09:32;;;;;;;3.78;2.58;;;10.50;62.30;;;;;;5051627;28;20036;-41
2021/05/09 01:11:57;;;;;;;3.78;2.80;;;10.60;62.40;;;;;;5052428;28;20025;-40
2021/05/09 01:14:24;;;;;;;5.13;2.97;;;10.60;62.30;;;;;;5052142;28;20496;-40
2021/05/09 01:16:49;;;;;;;5.15;3.25;;;10.60;62.50;;;;;;5052296;28;20028;-40
2021/05/09 01:19:15;;;;;;;4.95;3.20;;;10.70;62.50;;;;;;5052446;28;20025;-42
2021/05/09 01:21:40;;;;;;;8.98;3.72;;;10.70;62.40;;;;;;5056474;28;20052;-40
2021/05/09 01:24:07;;;;;;;5.93;3.45;;;10.70;62.40;;;;;;5071582;28;20387;-40
2021/05/09 01:26:32;;;;;;;3.58;2.78;;;10.80;62.30;;;;;;5071290;28;20504;-40
2021/05/09 01:28:58;;;;;;;5.93;3.60;;;10.80;62.30;;;;;;5066948;28;20043;-40
2021/05/09 01:31:23;;;;;;;2.42;2.22;;;10.80;62.30;;;;;;5085520;28;20033;-40
2021/05/09 01:33:49;;;;;;;5.68;2.83;;;10.80;62.30;;;;;;5070325;28;20039;-40
2021/05/09 01:36:14;;;;;;;4.43;2.88;;;10.80;62.40;;;;;;5070495;28;20020;-41
2021/05/09 01:38:40;;;;;;;4.07;2.78;;;10.80;62.10;;;;;;5069552;28;20028;-41
2021/05/09 01:41:05;;;;;;;4.55;3.10;;;10.80;62.30;;;;;;5070642;28;20474;-41
2021/05/09 01:43:35;;;;;;;7.45;2.85;;;10.80;62.10;;;;;;5070343;28;20029;-41
2021/05/09 01:46:00;;;;;;;3.83;2.72;;;10.90;62.10;;;;;;5059415;28;20032;-41
2021/05/09 01:48:26;;;;;;;3.00;2.58;;;10.90;62.10;;;;;;5070407;28;20491;-40
2021/05/09 01:50:51;;;;;;;5.72;3.90;;;10.90;62.10;;;;;;5070402;28;20025;-40
2021/05/09 01:53:17;;;;;;;4.45;3.30;;;11.00;62.10;;;;;;5085801;28;20039;-41
2021/05/09 01:55:42;;;;;;;4.70;3.60;;;11.00;62.20;;;;;;5089534;28;20463;-41
2021/05/09 01:58:08;;;;;;;4.72;2.97;;;11.00;62.20;;;;;;5090370;28;20020;-40
2021/05/09 02:00:33;;;;;;;4.25;2.80;;;11.00;62.00;;;;;;5094029;28;20024;-42
2021/05/09 02:02:59;;;;;;;5.95;2.83;;;11.00;62.00;;;;;;5074475;28;20412;-41
2021/05/09 02:05:25;;;;;;;5.20;3.35;;;11.00;62.10;;;;;;5074143;28;20380;-46
2021/05/09 02:07:50;;;;;;;9.95;2.95;;;11.00;62.10;;;;;;5074014;28;20032;-48
2021/05/09 02:10:16;;;;;;;5.55;3.65;;;11.00;62.50;;;;;;5073098;28;20099;-47
2021/05/09 02:12:42;;;;;;;3.97;2.85;;;11.00;63.00;;;;;;5073618;28;20158;-41
2021/05/09 02:15:08;;;;;;;7.35;3.08;;;11.00;62.10;;;;;;5073790;28;20357;-44
2021/05/09 02:17:34;;;;;;;4.38;3.50;;;11.00;62.20;;;;;;5073649;28;20028;-45
2021/05/09 02:20:00;;;;;;;6.88;3.80;;;11.00;62.30;;;;;;5073686;28;20099;-44
2021/05/09 02:22:26;;;;;;;4.22;3.63;;;11.10;62.20;;;;;;5073482;28;20483;-47
2021/05/09 02:24:52;;;;;;;5.32;2.78;;;11.10;62.30;;;;;;5072952;28;20067;-47
2021/05/09 02:27:17;;;;;;;3.65;2.80;;;11.00;62.30;;;;;;5073462;28;20108;-45
2021/05/09 02:29:43;;;;;;;7.43;3.72;;;11.10;62.30;;;;;;5073658;28;20506;-50
2021/05/09 02:32:08;;;;;;;7.13;3.42;;;11.10;62.30;;;;;;5073575;28;20033;-44
2021/05/09 02:34:35;;;;;;;6.72;3.28;;;11.00;62.30;;;;;;5073193;28;20085;-42
2021/05/09 02:37:02;;;;;;;5.57;2.75;;;11.10;62.50;;;;;;5073411;28;20021;-44
2021/05/09 02:39:27;;;;;;;4.43;2.60;;;11.00;62.60;;;;;;5072562;28;20021;-44
2021/05/09 02:41:53;;;;;;;4.53;3.03;;;11.00;62.60;;;;;;5073265;28;20044;-44
2021/05/09 02:44:18;;;;;;;4.65;3.42;;;11.00;62.80;;;;;;5073487;28;20445;-43
2021/05/09 02:46:44;;;;;;;5.57;2.72;;;11.00;62.90;;;;;;5073278;28;20040;-43
2021/05/09 02:49:10;;;;;;;3.83;2.83;;;11.00;62.90;;;;;;5073219;28;20168;-44
2021/05/09 02:51:35;;;;;;;4.45;3.38;;;10.90;63.10;;;;;;5073241;28;20379;-46
2021/05/09 02:54:01;;;;;;;3.97;2.40;;;11.00;63.40;;;;;;5088196;28;20056;-46
2021/05/09 02:56:26;;;;;;;3.20;2.80;;;11.00;63.30;;;;;;5074013;28;20025;-44
2021/05/09 02:58:52;;;;;;;4.05;3.42;;;10.90;63.30;;;;;;5074837;28;20028;-45
2021/05/09 03:01:18;;;;;;;7.07;3.30;;;10.90;63.50;;;;;;5074955;28;20409;-45
2021/05/09 03:03:43;;;;;;;5.18;3.33;;;10.90;63.50;;;;;;5074843;28;20082;-40
2021/05/09 03:06:09;;;;;;;5.43;2.97;;;10.90;63.60;;;;;;5074662;28;20103;-43
2021/05/09 03:08:34;;;;;;;4.22;2.58;;;10.90;63.90;;;;;;5073963;28;20123;-41
2021/05/09 03:11:01;;;;;;;3.80;2.72;;;10.80;64.10;;;;;;5073821;28;20028;-41
2021/05/09 03:13:27;;;;;;;4.30;2.85;;;10.70;64.20;;;;;;5074513;28;20039;-43
2021/05/09 03:15:52;;;;;;;3.83;2.58;;;10.60;64.50;;;;;;5074512;28;20017;-43
2021/05/09 03:18:18;;;;;;;5.82;3.22;;;10.60;64.70;;;;;;5074737;28;20021;-42
2021/05/09 03:20:43;;;;;;;3.80;2.47;;;10.60;64.80;;;;;;5074226;28;20033;-42
2021/05/09 03:23:09;;;;;;;5.18;3.25;;;10.60;64.70;;;;;;5074256;28;20518;-43
2021/05/09 03:25:34;;;;;;;4.07;2.58;;;10.70;64.80;;;;;;5073425;28;20044;-42
2021/05/09 03:28:00;;;;;;;5.18;2.55;;;10.70;64.70;;;;;;5074398;28;20146;-43
2021/05/09 03:30:25;;;;;;;4.95;2.60;;;10.70;64.70;;;;;;5074548;28;20063;-42
2021/05/09 03:32:54;;;;;;;7.53;3.20;;;10.70;64.80;;;;;;5074103;28;20035;-47
2021/05/09 03:35:19;;;;;;;4.25;2.10;;;10.70;64.70;;;;;;5074113;28;20044;-41
2021/05/09 03:37:45;;;;;;;3.65;2.10;;;10.80;64.70;;;;;;5074055;28;20020;-50
2021/05/09 03:40:11;;;;;;;5.43;2.30;;;10.80;64.80;;;;;;5073379;28;20024;-45
2021/05/09 03:42:36;;;;;;;2.75;2.47;;;10.80;64.70;;;;;;5073746;28;20380;-45
2021/05/09 03:45:03;;;;;;;8.75;3.10;;;10.80;64.90;;;;;;5074096;28;20115;-44
2021/05/09 03:47:28;;;;;;;5.20;3.03;;;10.80;64.70;;;;;;5073968;28;20471;-45
2021/05/09 03:49:55;;;;;;;4.45;2.53;;;10.90;64.80;;;;;;5073888;28;20027;-43
2021/05/09 03:52:21;;;;;;;2.97;2.22;;;10.80;64.80;;;;;;5057705;28;20037;-42
2021/05/09 03:54:47;;;;;;;3.22;2.08;;;10.80;64.90;;;;;;5052864;28;20025;-41
2021/05/09 03:57:13;;;;;;;3.20;1.80;;;10.80;65.00;;;;;;5053667;28;20033;-42
2021/05/09 03:59:39;;;;;;;4.05;2.47;;;10.70;65.20;;;;;;5053780;28;20096;-45
2021/05/09 04:02:05;;;;;;;4.43;2.80;;;10.70;65.30;;;;;;5053537;28;20506;-40
2021/05/09 04:04:30;;;;;;;5.60;2.88;;;10.70;65.60;;;;;;5053580;28;20029;-43
2021/05/09 04:06:56;;;;;;;5.05;2.88;;;10.70;65.80;;;;;;5053337;28;20029;-41
2021/05/09 04:09:21;;;;;;;6.75;3.13;;;10.90;65.90;;;;;;5052763;28;20111;-43
2021/05/09 04:11:47;;;;;;;3.60;2.53;;;11.60;64.70;;;;;;5053177;28;20061;-41
2021/05/09 04:14:12;;;;;;;3.15;2.53;;;12.30;63.40;;;;;;5052215;28;20040;-41
2021/05/09 04:16:38;;;;;;;11.35;3.88;;;12.60;62.20;;;;;;5053261;28;20032;-47
2021/05/09 04:19:03;;;;;;;4.53;2.35;;;12.90;61.60;;;;;;5053210;28;20376;-44
2021/05/09 04:21:29;;;;;;;4.28;2.72;;;13.00;61.20;;;;;;5055523;28;20056;-44
2021/05/09 04:23:54;;;;;;;3.90;2.80;;;13.90;60.00;;;;;;5072283;28;20047;-43
2021/05/09 04:26:20;;;;;;;3.92;2.95;;;15.00;57.60;;;;;;5073096;28;20059;-43
2021/05/09 04:28:45;;;;;;;4.20;2.10;;;16.30;55.60;;;;;;5073177;28;20024;-41
2021/05/09 04:31:12;;;;;;;5.88;2.50;;;17.20;54.20;;;;;;5073093;28;20059;-41
2021/05/09 04:33:38;;;;;;;3.35;2.10;;;17.90;53.60;;;;;;5073029;28;20028;-43
2021/05/09 04:36:04;;;;;;;4.22;2.50;;;18.70;52.40;;;;;;5073077;28;20047;-43
2021/05/09 04:38:30;;;;;;;3.17;2.35;;;19.20;51.00;;;;;;5072410;28;20462;-42
2021/05/09 04:40:55;;;;;;;4.65;2.65;;;19.40;48.60;;;;;;5072776;28;20099;-42
2021/05/09 04:43:22;;;;;;;3.13;2.20;;;19.60;49.60;;;;;;5072850;28;20031;-50
2021/05/09 04:45:53;;;;;;;3.80;2.25;;;19.30;50.10;;;;;;5072983;28;20017;-43
2021/05/09 04:48:19;;;;;;;3.63;2.50;;;18.70;50.50;;;;;;5072888;28;20447;-44
2021/05/09 04:50:45;;;;;;;3.35;2.65;;;18.30;50.80;;;;;;5070082;28;20533;-47
2021/05/09 04:53:28;;;;;;;4.75;2.20;;;18.40;50.20;;;;;;5052914;28;20372;-42
2021/05/09 04:55:57;;;;;;;2.60;2.08;;;18.20;50.10;;;;;;5052395;28;20032;-42
2021/05/09 04:58:22;;;;;;;2.60;2.03;;;18.10;50.80;;;;;;5052787;28;20472;-43
2021/05/09 05:00:53;;;;;;;2.25;1.90;;;18.80;50.50;;;;;;5052716;28;20039;-42
2021/05/09 05:03:19;;;;;;;3.55;2.42;;;19.60;49.20;;;;;;5052356;28;20472;-42
2021/05/09 05:05:45;;;;;;;4.50;2.22;;;20.50;48.40;;;;;;5052681;28;20028;-43
2021/05/09 05:08:10;;;;;;;4.60;2.80;;;21.50;47.40;;;;;;5052309;28;20071;-43
2021/05/09 05:10:36;;;;;;;3.25;2.38;;;22.20;46.00;;;;;;5051697;28;20029;-42
2021/05/09 05:13:01;;;;;;;3.78;2.47;;;22.60;45.10;;;;;;5052358;28;20033;-41
2021/05/09 05:15:27;;;;;;;4.40;2.53;;;23.30;44.30;;;;;;5052407;28;20029;-44
2021/05/09 05:17:52;;;;;;;10.68;2.42;;;24.00;43.60;;;;;;5052391;28;20031;-41
2021/05/09 05:20:18;;;;;;;4.55;2.38;;;23.80;43.10;;;;;;5052585;28;20063;-43
2021/05/09 05:22:43;;;;;;;3.70;2.25;;;23.70;42.70;;;;;;5064659;28;20057;-42
2021/05/09 05:25:10;;;;;;;4.43;2.42;;;23.90;42.50;;;;;;5071570;28;20024;-42
2021/05/09 05:27:35;;;;;;;4.07;2.95;;;23.90;42.10;;;;;;5072408;28;20029;-42
2021/05/09 05:30:01;;;;;;;3.70;2.08;;;24.00;42.10;;;;;;5072400;28;20085;-42
2021/05/09 05:32:26;;;;;;;5.55;2.45;;;24.40;42.20;;;;;;5072211;28;20036;-46
2021/05/09 05:34:52;;;;;;;2.47;2.03;;;24.60;40.30;;;;;;5074910;28;20032;-44
2021/05/09 05:37:17;;;;;;;4.20;2.20;;;24.60;40.70;;;;;;5076266;28;20050;-45
2021/05/09 05:39:43;;;;;;;3.00;2.20;;;25.10;41.10;;;;;;5075344;28;20033;-47
2021/05/09 05:42:08;;;;;;;5.88;2.78;;;25.30;40.60;;;;;;5076257;28;20139;-46
2021/05/09 05:44:34;;;;;;;4.07;2.17;;;25.30;39.40;;;;;;5076329;28;20064;-46
2021/05/09 05:46:59;;;;;;;4.25;2.45;;;24.90;39.60;;;;;;5076164;28;20036;-42
2021/05/09 05:49:25;;;;;;;3.15;2.17;;;25.20;40.40;;;;;;5076349;28;20066;-42
2021/05/09 05:51:50;;;;;;;3.13;2.28;;;26.30;39.80;;;;;;5064120;28;20112;-42
2021/05/09 05:54:16;;;;;;;3.00;2.25;;;27.20;39.20;;;;;;5055039;28;20031;-43
2021/05/09 05:56:41;;;;;;;2.70;1.70;;;27.20;38.10;;;;;;5056060;28;20056;-43
2021/05/09 05:59:07;;;;;;;3.40;1.80;;;26.20;38.30;;;;;;5056098;28;20029;-42
2021/05/09 06:01:32;;;;;;;3.97;2.22;;;25.50;40.00;;;;;;5055860;28;20445;-43
2021/05/09 06:03:58;;;;;;;3.85;1.92;;;24.70;39.40;;;;;;5055789;28;20071;-42
2021/05/09 06:06:23;;;;;;;2.88;2.00;;;24.20;39.80;;;;;;5055936;28;20032;-42
2021/05/09 06:08:52;;;;;;;3.85;2.22;;;23.50;40.10;;;;;;5054784;28;20039;-43
2021/05/09 06:11:18;;;;;;;2.90;2.10;;;23.10;40.90;;;;;;5094226;22;20113;-43
2021/05/09 06:13:43;;;;;;;4.57;2.10;;;22.60;41.40;;;;;;5075534;28;20024;-41
2021/05/09 06:16:09;;;;;;;3.05;1.85;;;21.80;42.40;;;;;;5075683;28;20489;-41
2021/05/09 06:18:36;;;;;;;4.35;2.17;;;21.30;43.50;;;;;;5075741;28;20035;-43
2021/05/09 06:21:01;;;;;;;3.90;2.30;;;21.10;44.10;;;;;;5075535;28;20017;-39
2021/05/09 06:23:28;;;;;;;3.28;2.20;;;20.90;44.50;;;;;;5093926;28;20186;-41
2021/05/09 06:25:54;;;;;;;1.92;1.70;;;20.70;44.90;;;;;;5095645;28;20028;-41
2021/05/09 06:28:19;;;;;;;2.97;1.83;;;20.80;45.10;;;;;;5095808;28;20352;-42
2021/05/09 06:30:46;;;;;;;2.92;1.92;;;20.70;45.20;;;;;;5095870;28;20028;-41
2021/05/09 06:33:12;;;;;;;2.38;1.65;;;21.00;45.20;;;;;;5081307;28;20397;-40
2021/05/09 06:35:39;;;;;;;1.60;1.40;;;21.70;44.80;;;;;;5075066;28;20058;-42
2021/05/09 06:38:09;;;;;;;2.00;1.80;;;22.90;43.70;;;;;;5075051;28;20032;-40
2021/05/09 06:40:38;;;;;;;3.05;1.63;;;23.40;42.70;;;;;;5074137;28;20531;-40
2021/05/09 06:43:06;;;;;;;4.45;1.92;;;22.70;42.70;;;;;;5074819;28;20035;-40
2021/05/09 06:45:33;;;;;;;2.60;2.05;;;22.10;43.50;;;;;;5073777;28;20059;-40
2021/05/09 06:48:02;;;;;;;4.57;1.85;;;21.70;44.20;;;;;;5073672;28;20078;-40
2021/05/09 06:50:29;;;;;;;3.97;1.80;;;21.40;44.70;;;;;;5074937;28;20498;-40
2021/05/09 06:52:54;;;;;;;2.67;1.85;;;21.50;45.00;;;;;;5074774;28;20055;-39
2021/05/09 06:55:20;;;;;;;4.80;2.05;;;21.60;44.70;;;;;;5073798;28;20476;-41
2021/05/09 06:57:47;;;;;;;1.75;1.48;;;22.00;44.60;;;;;;5074878;28;20017;-42
2021/05/09 07:00:14;;;;;;;3.22;1.58;;;22.90;44.20;;;;;;5074716;28;20089;-40
2021/05/09 07:02:40;;;;;;;4.70;2.17;;;24.00;43.20;;;;;;5074703;28;20024;-46
2021/05/09 07:05:05;;;;;;;3.58;1.88;;;24.50;42.20;;;;;;5074523;28;20468;-41
2021/05/09 07:07:31;;;;;;;2.22;1.33;;;24.70;42.40;;;;;;5074670;28;20078;-41
2021/05/09 07:09:56;;;;;;;2.33;1.83;;;25.00;41.90;;;;;;5073104;28;20068;-40
2021/05/09 07:12:22;;;;;;;3.50;1.92;;;25.60;41.20;;;;;;5074311;28;20140;-41
2021/05/09 07:14:48;;;;;;;3.60;2.22;;;26.20;40.40;;;;;;5074566;28;20029;-41
2021/05/09 07:17:14;;;;;;;4.30;2.08;;;26.90;39.70;;;;;;5074324;28;20078;-41
2021/05/09 07:19:40;;;;;;;2.00;1.80;;;27.00;39.00;;;;;;5074418;28;20025;-40
2021/05/09 07:22:12;;;;;;;6.25;2.20;;;27.60;38.90;;;;;;5074136;28;20488;-40
2021/05/09 07:24:37;;;;;;;3.05;2.03;;;28.50;38.00;;;;;;5073490;28;20036;-40
2021/05/09 07:27:03;;;;;;;2.30;1.38;;;28.80;37.40;;;;;;5074067;28;20029;-42
2021/05/09 07:29:29;;;;;;;3.65;1.58;;;29.20;37.50;;;;;;5074262;28;20468;-41
2021/05/09 07:31:54;;;;;;;1.48;1.38;;;29.80;37.00;;;;;;5074011;28;20110;-40
2021/05/09 07:34:20;;;;;;;2.05;1.60;;;30.30;37.00;;;;;;5073956;28;20028;-40
2021/05/09 07:36:47;;;;;;;4.00;1.58;;;30.60;36.50;;;;;;5074096;28;20021;-43
2021/05/09 07:39:12;;;;;;;2.67;1.55;;;30.30;36.50;;;;;;5072273;28;20029;-41
2021/05/09 07:41:38;;;;;;;3.03;1.85;;;30.70;36.30;;;;;;5073979;28;20036;-41
2021/05/09 07:44:05;;;;;;;1.88;1.52;;;30.70;35.70;;;;;;5073681;28;20065;-41
2021/05/09 07:46:31;;;;;;;4.38;1.77;;;30.30;35.60;;;;;;5073582;28;20054;-41
2021/05/09 07:48:56;;;;;;;3.42;1.60;;;30.50;35.80;;;;;;5073606;28;20059;-44
2021/05/09 07:51:22;;;;;;;2.05;1.38;;;31.00;35.40;;;;;;5073714;28;20140;-42
2021/05/09 07:53:47;;;;;;;1.58;1.30;;;31.50;35.60;;;;;;5072553;28;20032;-42
2021/05/09 07:56:13;;;;;;;1.30;1.20;;;32.00;35.00;;;;;;5074379;28;20025;-41
2021/05/09 07:58:38;;;;;;;3.65;1.65;;;32.10;34.40;;;;;;5073158;28;20103;-40
2021/05/09 08:01:04;;;;;;;1.20;1.10;;;32.30;34.00;;;;;;5073515;28;20028;-40
2021/05/09 08:03:30;;;;;;;2.10;1.35;;;32.10;34.20;;;;;;5072506;28;20383;-41
2021/05/09 08:05:56;;;;;;;2.63;1.60;;;32.30;34.60;;;;;;5073322;28;20047;-40
2021/05/09 08:08:26;;;;;;;2.55;1.63;;;32.50;33.70;;;;;;5073062;28;20066;-41
2021/05/09 08:10:51;;;;;;;2.08;1.30;;;32.00;33.40;;;;;;5073079;28;20082;-40
2021/05/09 08:13:17;;;;;;;2.20;1.60;;;31.60;34.30;;;;;;5073152;28;20539;-41
2021/05/09 08:15:42;;;;;;;1.15;1.05;;;31.50;34.70;;;;;;5073247;28;20039;-42
2021/05/09 08:18:08;;;;;;;1.73;1.30;;;32.00;34.80;;;;;;5071832;28;20017;-40
2021/05/09 08:20:34;;;;;;;2.92;1.45;;;32.00;34.80;;;;;;5073266;28;20127;-40
2021/05/09 08:22:59;;;;;;;3.15;1.20;;;32.20;34.00;;;;;;5088197;28;20065;-40
2021/05/09 08:25:25;;;;;;;3.72;1.40;;;32.70;34.30;;;;;;5092442;28;20060;-40
2021/05/09 08:27:51;;;;;;;2.63;1.40;;;32.00;33.90;;;;;;5093475;28;20499;-40
2021/05/09 08:30:20;;;;;;;2.50;1.17;;;32.10;34.30;;;;;;5093187;28;20056;-40
2021/05/09 08:32:45;;;;;;;2.42;1.60;;;32.00;34.50;;;;;;5093253;28;20089;-43
2021/05/09 08:35:11;;;;;;;1.20;1.10;;;31.70;34.50;;;;;;5093098;28;20487;-42
2021/05/09 08:37:39;;;;;;;2.83;1.52;;;31.30;35.00;;;;;;5072842;28;20016;-40
2021/05/09 08:40:06;;;;;;;1.58;1.45;;;31.10;35.00;;;;;;5071743;28;20451;-40
2021/05/09 08:42:32;;;;;;;1.60;1.33;;;31.60;34.90;;;;;;5072711;28;20510;-40
2021/05/09 08:44:57;;;;;;;2.05;1.30;;;31.70;34.50;;;;;;5072437;28;20029;-42
2021/05/09 08:47:36;;;;;;;4.05;1.40;;;31.70;34.90;;;;;;5072686;28;20032;-40
2021/05/09 08:50:07;;;;;;;2.83;1.30;;;31.80;34.50;;;;;;5072734;28;20104;-40
2021/05/09 08:52:34;;;;;;;1.83;0.88;;;32.20;35.00;;;;;;5072712;28;20484;-40
2021/05/09 08:55:04;;;;;;;1.63;1.17;;;32.90;35.00;;;;;;5071574;28;20024;-41
2021/05/09 08:57:29;;;;;;;2.85;1.13;;;32.70;34.40;;;;;;5072410;28;20115;-40
2021/05/09 08:59:55;;;;;;;1.48;1.17;;;32.80;34.30;;;;;;5072857;28;20048;-41
2021/05/09 09:02:23;;;;;;;2.35;1.40;;;32.70;34.00;;;;;;5072529;28;20032;-40
2021/05/09 09:04:51;;;;;;;2.65;1.10;;;32.30;34.10;;;;;;5072422;28;20112;-41
2021/05/09 09:07:16;;;;;;;1.75;1.23;;;32.10;34.20;;;;;;5072485;28;20044;-40
2021/05/09 09:09:45;;;;;;;2.80;1.73;;;31.50;34.70;;;;;;5070760;28;20059;-40
2021/05/09 09:12:12;;;;;;;1.05;0.95;;;31.40;35.00;;;;;;5072010;28;20080;-42
2021/05/09 09:14:53;;;;;;;1.50;1.15;;;31.70;35.40;;;;;;5072494;28;20035;-40
2021/05/09 09:17:20;;;;;;;1.58;0.98;;;32.10;34.60;;;;;;5072258;28;20029;-40
2021/05/09 09:20:16;;;;;;;1.30;1.00;;;32.50;34.60;;;;;;5072358;28;20036;-40
2021/05/09 09:22:55;;;;;;;1.23;1.13;;;33.00;34.20;;;;;;5072093;28;20029;-40
2021/05/09 09:25:32;;;;;;;3.42;0.82;;;33.50;34.40;;;;;;5071238;28;20379;-40
2021/05/09 09:27:58;;;;;;;1.50;1.08;;;33.60;33.70;;;;;;5072392;28;20023;-40
2021/05/09 09:30:26;;;;;;;1.00;0.90;;;32.80;33.60;;;;;;5120894;22;20013;-41
2021/05/09 09:33:11;;;;;;;2.63;1.20;;;32.90;34.20;;;;;;5069971;28;20522;-42
2021/05/09 09:35:38;;;;;;;1.08;0.80;;;32.80;34.60;;;;;;5072447;28;20024;-40
2021/05/09 09:38:36;;;;;;;1.40;1.08;;;33.00;34.20;;;;;;5072369;28;20044;-40
2021/05/09 09:41:15;;;;;;;2.00;0.95;;;33.00;33.70;;;;;;5038660;28;20547;-42
2021/05/09 09:44:00;;;;;;;1.23;1.00;;;32.60;33.80;;;;;;5071893;28;20585;-40
2021/05/09 09:46:30;;;;;;;1.00;0.90;;;32.50;34.10;;;;;;5065690;28;20063;-41
2021/05/09 09:48:58;;;;;;;4.18;1.55;;;31.80;34.00;;;;;;5072089;28;20082;-40
2021/05/09 09:51:24;;;;;;;1.95;0.98;;;31.60;34.30;;;;;;5071932;28;20120;-41
2021/05/09 09:53:51;;;;;;;1.60;1.00;;;31.10;34.90;;;;;;5070804;28;20028;-41
2021/05/09 09:56:19;;;;;;;1.70;1.20;;;30.80;35.30;;;;;;5071948;28;20028;-40
2021/05/09 09:59:04;;;;;;;1.98;1.23;;;30.20;35.70;;;;;;5071858;28;20387;-41
2021/05/09 10:01:34;;;;;;;4.93;2.88;;;29.30;36.60;;;;;;5071858;28;20487;-44
2021/05/09 10:04:05;;;;;;;2.83;1.95;;;28.30;37.40;;;;;;5071593;28;20041;-40
2021/05/09 10:06:31;;;;;;;2.22;1.35;;;27.70;38.20;;;;;;5071751;28;20510;-40
2021/05/09 10:08:58;;;;;;;1.35;1.00;;;27.20;39.20;;;;;;5070905;28;20055;-41
2021/05/09 10:11:25;;;;;;;2.00;1.35;;;26.80;39.50;;;;;;5071997;28;20021;-41
2021/05/09 10:13:52;;;;;;;1.23;0.93;;;26.40;40.40;;;;;;5071946;28;20033;-40
2021/05/09 10:16:28;;;;;;;1.67;1.00;;;26.10;40.70;;;;;;5071740;28;20487;-41
2021/05/09 10:19:23;;;;;;;1.30;0.90;;;25.90;40.90;;;;;;5071102;28;20032;-40
2021/05/09 10:21:49;;;;;;;1.33;0.75;;;25.80;42.20;;;;;;5078249;28;20062;-40
2021/05/09 10:24:21;;;;;;;0.70;0.68;;;25.70;41.40;;;;;;5094731;28;20085;-41
2021/05/09 10:26:48;;;;;;;2.13;0.90;;;25.60;42.10;;;;;;5075846;28;20021;-40
2021/05/09 10:29:36;;;;;;;2.88;1.33;;;25.60;41.90;;;;;;5074088;28;20152;-39
2021/05/09 10:32:05;;;;;;;1.02;0.82;;;25.40;42.50;;;;;;5080359;28;20043;-40
2021/05/09 10:34:56;;;;;;;1.55;0.80;;;25.30;42.80;;;;;;5075097;28;20476;-41
2021/05/09 10:37:46;;;;;;;1.45;1.00;;;25.20;43.60;;;;;;5074812;28;20383;-40
2021/05/09 10:40:18;;;;;;;3.13;1.02;;;25.10;43.30;;;;;;5073463;28;20020;-43
2021/05/09 10:42:45;;;;;;;1.13;1.00;;;24.90;43.20;;;;;;5074792;28;20032;-45
2021/05/09 10:45:11;;;;;;;2.60;1.27;;;24.80;43.60;;;;;;5074360;28;20033;-45
2021/05/09 10:47:37;;;;;;;1.02;0.90;;;24.70;44.00;;;;;;5074751;28;20499;-43
2021/05/09 10:50:14;;;;;;;1.10;0.90;;;24.60;43.80;;;;;;5074732;28;20031;-44
2021/05/09 10:52:44;;;;;;;2.55;0.93;;;24.60;44.70;;;;;;5074487;28;20028;-45
2021/05/09 10:55:35;;;;;;;1.23;0.80;;;24.60;44.50;;;;;;5073658;28;20028;-42
2021/05/09 10:58:03;;;;;;;3.65;0.90;;;24.50;44.50;;;;;;5070123;28;20032;-42
2021/05/09 11:01:00;;;;;;;1.80;1.00;;;24.50;44.50;;;;;;5074189;28;20503;-43
2021/05/09 11:03:34;;;;;;;1.63;1.10;;;24.50;44.90;;;;;;5074348;28;20094;-42
2021/05/09 11:06:16;;;;;;;3.08;1.15;;;24.40;44.90;;;;;;5074187;28;20137;-41
2021/05/09 11:08:42;;;;;;;3.28;0.85;;;24.30;45.30;;;;;;5072706;28;20483;-43
2021/05/09 11:11:20;;;;;;;1.00;0.80;;;24.30;45.20;;;;;;5074299;28;20074;-41
2021/05/09 11:13:58;;;;;;;5.03;1.15;;;24.30;45.80;;;;;;5074024;28;20035;-44
2021/05/09 11:16:36;;;;;;;1.40;1.15;;;24.30;45.50;;;;;;5066048;28;20052;-42
2021/05/09 11:19:05;;;;;;;3.63;1.10;;;24.30;46.10;;;;;;5073522;28;20387;-42
2021/05/09 11:21:52;;;;;;;5.15;1.35;;;24.40;44.70;;;;;;5070603;28;20076;-44
2021/05/09 11:24:26;;;;;;;3.05;1.20;;;24.30;45.60;;;;;;5072033;28;20061;-46
2021/05/09 11:26:53;;;;;;;2.20;0.95;;;24.30;45.40;;;;;;5074608;28;20032;-42
2021/05/09 11:29:21;;;;;;;1.20;0.82;;;24.40;45.90;;;;;;5074187;28;20032;-42
2021/05/09 11:31:51;;;;;;;1.52;1.00;;;24.40;45.20;;;;;;5073111;28;20044;-41
2021/05/09 11:34:19;;;;;;;1.33;1.10;;;24.40;45.40;;;;;;5073092;28;20035;-43
2021/05/09 11:36:47;;;;;;;1.75;0.95;;;24.30;44.90;;;;;;5402944;22;20055;-42
2021/05/09 11:39:17;;;;;;;3.90;1.13;;;24.30;44.90;;;;;;5093546;28;20031;-42
2021/05/09 11:41:58;;;;;;;1.85;0.90;;;24.30;44.60;;;;;;5094383;28;20111;-44
2021/05/09 11:44:41;;;;;;;1.42;1.00;;;24.30;45.30;;;;;;5094094;28;20107;-46
2021/05/09 11:47:23;;;;;;;1.23;0.70;;;24.30;44.60;;;;;;5094021;28;20020;-41
2021/05/09 11:49:50;;;;;;;1.67;0.85;;;24.30;44.70;;;;;;5094249;28;20020;-41
2021/05/09 11:52:20;;;;;;;2.83;1.00;;;24.30;44.90;;;;;;5094239;28;20028;-42
2021/05/09 11:54:50;;;;;;;0.95;0.82;;;24.30;45.10;;;;;;5091853;28;20024;-45
2021/05/09 11:57:21;;;;;;;0.88;0.80;;;24.30;44.60;;;;;;5094266;28;20056;-41
2021/05/09 11:59:51;;;;;;;2.47;0.95;;;24.40;44.00;;;;;;5094062;28;20024;-43
2021/05/09 12:02:17;;;;;;;2.80;0.90;;;24.50;44.30;;;;;;5093973;28;20024;-44
2021/05/09 12:04:50;;;;;;;1.38;0.73;;;24.50;43.70;;;;;;5093712;28;20020;-42
2021/05/09 12:07:19;;;;;;;8.40;1.55;;;24.50;43.50;;;;;;5093893;28;20532;-43
2021/05/09 12:10:06;;;;;;;1.55;1.02;;;24.40;43.10;;;;;;5092932;28;20016;-43
2021/05/09 12:12:34;;;;;;;7.72;1.20;;;24.40;43.00;;;;;;5093710;28;20020;-45
2021/05/09 12:15:12;;;;;;;3.55;1.00;;;24.40;43.70;;;;;;5093576;28;20094;-47
2021/05/09 12:17:45;;;;;;;2.40;1.00;;;24.40;44.30;;;;;;5093526;28;20038;-42
2021/05/09 12:20:22;;;;;;;1.95;0.88;;;24.40;43.90;;;;;;5093616;28;20039;-44
2021/05/09 12:22:47;;;;;;;4.32;1.00;;;24.40;44.20;;;;;;5079922;28;20024;-39
2021/05/09 12:25:14;;;;;;;1.55;0.95;;;24.50;43.90;;;;;;5072249;28;20040;-43
2021/05/09 12:27:46;;;;;;;4.13;1.00;;;24.60;44.00;;;;;;5073271;28;20064;-41
2021/05/09 12:30:16;;;;;;;1.02;0.93;;;24.50;44.10;;;;;;5073191;28;20020;-42
2021/05/09 12:32:41;;;;;;;3.35;1.00;;;24.60;44.00;;;;;;5073034;28;20052;-41
2021/05/09 12:35:13;;;;;;;2.20;0.90;;;24.50;43.70;;;;;;5077943;28;20036;-46
2021/05/09 12:37:41;;;;;;;2.25;0.90;;;24.60;43.70;;;;;;5072863;28;20036;-43
2021/05/09 12:40:22;;;;;;;0.80;0.80;;;24.60;43.10;;;;;;5071999;28;20031;-46
2021/05/09 12:43:10;;;;;;;0.93;0.63;;;24.60;43.50;;;;;;5072620;28;20027;-42
2021/05/09 12:45:41;;;;;;;1.83;0.95;;;24.40;43.60;;;;;;5072711;28;20115;-41
2021/05/09 12:48:15;;;;;;;1.08;0.77;;;24.50;43.90;;;;;;5072843;28;20036;-44
2021/05/09 12:50:54;;;;;;;2.08;1.00;;;24.50;43.90;;;;;;5074749;28;20029;-45
2021/05/09 12:53:39;;;;;;;1.38;1.00;;;24.60;42.40;;;;;;5092031;28;20048;-44